Taneyville, MO (65759)

3:02 AM CST on November 22, 2014 (GMT -0600)
DanO's Place | Change Station
CLOSE
Current Station
Personal Weather Station
Location: Forsyth, MO
Elevation: 764 ft
Nearby Weather Stations

Elev 764 ft 36.68 °N, 93.11 °W | Updated 3 seconds ago

Overcast
Overcast
45.3 °F
Feels Like 45 °F
N
0.0
Wind Variable Wind from SE
Gusts 0.0 mph

Today
High -- | Low -- °F
--% Chance of Precip.
Yesterday
High -- | Low -- °F
Precip. -- in
6:57 AM 4:58 PM
Waning Crescent, 0% visible
Pressure 30.16 in
Visibility 10.0 miles
Clouds Few 3500 ft
Scattered Clouds 4200 ft
Mostly Cloudy 5500 ft
Windchill 45 °F
Dew Point 41 °F
Humidity 86%
Rainfall 0.00 in
Snow Depth Not available.
UV 0 out of 12
Pollen 1.40 out of 12
Air Quality Not available.
Flu Activity Not available.
METAR KBBG 220835Z AUTO 00000KT 10SM FEW035 SCT042 BKN055 09/07 A3016 RMK AO2

More Conditions Fewer Conditions

Pressure 30.16 in
Visibility 10.0 miles
Clouds Few 3500 ft
Scattered Clouds 4200 ft
Mostly Cloudy 5500 ft
Windchill 45 °F
Dew Point 41 °F
Humidity 86%
Rainfall 0.00 in
Snow Depth Not available.
UV 0 out of 12
Pollen 1.40 out of 12
Air Quality Not available.
Flu Activity Not available.
METAR KBBG 220835Z AUTO 00000KT 10SM FEW035 SCT042 BKN055 09/07 A3016 RMK AO2

More Conditions Fewer Conditions

10-Day Weather Forecast

Almanac

Astronomy

Nov. 22, 2014 Rise Set
Actual Time
Civil Twilight
Nautical Twilight
Astronomical Twilight
Moon
Length of Visible Light
Length of Day
Tomorrow will be .
, % of the Moon is Illuminated

Today's Extremes

State Highs State Lows

Community

WunderPhotos

Upload Photos

1,772,794 photos uploaded!

WunderBlogs® & News

Nearby

Air Quality

  Air Quality AQ Index Pollutant
Not available.

Snow Depth

Station Depth Elevation

Earthquake Activity

City Distance Mag. Time & Date
Minimum magnitude displayed is 2.5.

Coastal Water Temperatures

Place Temperature

Nearby Weather Stations